createdAt,value
2018-11-11T00:02:00.759Z,99.01
2018-11-11T00:04:29.329Z,98.63
2018-11-11T00:06:57.820Z,98.88
2018-11-11T00:09:26.475Z,98.22
2018-11-11T00:11:55.130Z,99.07
2018-11-11T00:14:23.680Z,98.85
2018-11-11T00:16:52.410Z,98.15
2018-11-11T00:19:21.279Z,97.67
2018-11-11T00:21:49.962Z,98.58
2018-11-11T00:24:18.536Z,98.86
2018-11-11T00:26:47.121Z,98.14
2018-11-11T00:29:15.777Z,98.10
2018-11-11T00:31:44.278Z,97.98
2018-11-11T00:34:13.054Z,98.14
2018-11-11T00:36:41.713Z,97.88
2018-11-11T00:39:11.287Z,97.35
2018-11-11T00:41:40.165Z,96.88
2018-11-11T00:44:08.889Z,96.85
2018-11-11T00:46:37.646Z,97.05
2018-11-11T00:49:06.811Z,97.74
2018-11-11T00:51:35.398Z,96.58
2018-11-11T00:54:05.646Z,97.71
2018-11-11T00:56:34.160Z,98.07
2018-11-11T00:59:04.063Z,98.26
2018-11-11T01:01:32.654Z,98.99
2018-11-11T01:04:03.469Z,98.39
2018-11-11T01:06:31.984Z,98.93
2018-11-11T01:09:00.475Z,99.15
2018-11-11T01:11:29.004Z,99.45
2018-11-11T01:13:57.630Z,98.83
2018-11-11T01:16:26.196Z,98.72
2018-11-11T01:18:54.727Z,98.32
2018-11-11T01:21:23.675Z,98.38
2018-11-11T01:23:52.186Z,99.28
2018-11-11T01:26:20.697Z,99.27
2018-11-11T01:28:49.615Z,99.67
2018-11-11T01:31:18.150Z,99.11
2018-11-11T01:33:46.658Z,99.70
2018-11-11T01:36:15.281Z,100.00
2018-11-11T01:38:43.814Z,100.00
2018-11-11T01:41:12.305Z,98.89
2018-11-11T01:43:40.876Z,98.59
2018-11-11T01:46:09.463Z,97.98
2018-11-11T01:48:38.402Z,97.95
2018-11-11T01:51:06.882Z,97.86
2018-11-11T01:53:35.383Z,97.21
2018-11-11T01:56:06.612Z,97.75
2018-11-11T01:58:35.214Z,97.12
2018-11-11T02:01:05.566Z,96.73
2018-11-11T02:03:34.314Z,97.25
2018-11-11T02:06:04.441Z,97.09
2018-11-11T02:08:32.954Z,96.53
2018-11-11T02:11:03.899Z,97.05
2018-11-11T02:13:32.585Z,96.61
2018-11-11T02:16:03.758Z,96.16
2018-11-11T02:18:32.551Z,96.19
2018-11-11T02:21:03.520Z,96.12
2018-11-11T02:23:32.037Z,97.15
2018-11-11T02:26:00.806Z,96.71
2018-11-11T02:28:29.312Z,96.00
2018-11-11T02:30:57.837Z,96.41
2018-11-11T02:33:26.321Z,95.45
2018-11-11T02:35:54.807Z,95.34
2018-11-11T02:38:23.331Z,95.51
2018-11-11T02:40:51.851Z,94.84
2018-11-11T02:43:20.394Z,94.89
2018-11-11T02:45:49.271Z,95.16
2018-11-11T02:48:17.801Z,95.35
2018-11-11T02:50:47.860Z,94.83
2018-11-11T02:53:16.338Z,95.06
2018-11-11T02:55:44.876Z,95.61
2018-11-11T02:58:13.539Z,95.85
2018-11-11T03:00:42.124Z,95.82
2018-11-11T03:03:10.976Z,95.61
2018-11-11T03:05:39.553Z,94.94
2018-11-11T03:08:08.204Z,95.22
2018-11-11T03:10:36.721Z,95.38
2018-11-11T03:13:07.065Z,95.25
2018-11-11T03:15:36.397Z,95.83
2018-11-11T03:18:11.534Z,95.87
2018-11-11T03:20:42.000Z,95.75
2018-11-11T03:23:10.504Z,95.21
2018-11-11T03:25:39.106Z,95.77
2018-11-11T03:28:07.621Z,95.81
2018-11-11T03:30:36.188Z,95.45
2018-11-11T03:33:05.768Z,94.89
2018-11-11T03:35:34.482Z,95.40
2018-11-11T03:38:05.555Z,94.24
2018-11-11T03:40:34.179Z,94.58
2018-11-11T03:43:04.970Z,94.46
2018-11-11T03:45:33.481Z,94.76
2018-11-11T03:48:06.089Z,95.07
2018-11-11T03:50:34.652Z,94.61
2018-11-11T03:53:05.042Z,95.04
2018-11-11T03:55:33.736Z,95.11
2018-11-11T03:58:03.684Z,95.86
2018-11-11T04:00:32.187Z,95.28
2018-11-11T04:03:00.986Z,95.50
2018-11-11T04:05:29.597Z,94.87
2018-11-11T04:07:58.194Z,95.55
2018-11-11T04:10:26.934Z,95.95
2018-11-11T04:12:55.462Z,95.39
2018-11-11T04:15:24.492Z,95.40
2018-11-11T04:17:52.997Z,94.80
2018-11-11T04:20:21.653Z,94.76
2018-11-11T04:22:50.217Z,94.65
2018-11-11T04:25:19.388Z,94.05
2018-11-11T04:27:47.920Z,94.37
2018-11-11T04:30:16.643Z,94.42
2018-11-11T04:32:45.391Z,94.33
2018-11-11T04:35:14.070Z,94.21
2018-11-11T04:37:42.544Z,94.01
2018-11-11T04:40:12.181Z,93.62
2018-11-11T04:42:40.685Z,94.33
2018-11-11T04:45:11.421Z,94.37
2018-11-11T04:47:39.899Z,93.32
2018-11-11T04:50:10.103Z,93.78
2018-11-11T04:52:38.723Z,92.99
2018-11-11T04:55:07.604Z,93.05
2018-11-11T04:57:36.106Z,93.05
2018-11-11T05:00:08.172Z,93.29
2018-11-11T05:02:36.659Z,93.07
2018-11-11T05:05:06.148Z,92.79
2018-11-11T05:07:34.696Z,92.61
2018-11-11T05:10:04.727Z,92.75
2018-11-11T05:12:33.248Z,92.06
2018-11-11T05:15:02.942Z,92.83
2018-11-11T05:17:31.488Z,92.36
2018-11-11T05:19:59.973Z,92.03
2018-11-11T05:22:28.636Z,91.40
2018-11-11T05:24:57.122Z,91.18
2018-11-11T05:27:25.925Z,91.60
2018-11-11T05:29:54.534Z,91.41
2018-11-11T05:32:23.074Z,90.87
2018-11-11T05:34:51.560Z,91.25
2018-11-11T05:37:20.359Z,90.57
2018-11-11T05:39:48.969Z,89.88
2018-11-11T05:42:17.466Z,89.17
2018-11-11T05:44:45.997Z,88.37
2018-11-11T05:47:14.514Z,88.44
2018-11-11T05:49:43.071Z,88.31
2018-11-11T05:52:12.066Z,88.92
2018-11-11T05:54:40.623Z,89.35
2018-11-11T05:57:09.248Z,88.80
2018-11-11T05:59:37.764Z,88.51
2018-11-11T06:02:06.254Z,88.15
2018-11-11T06:04:34.770Z,88.31
2018-11-11T06:07:05.577Z,87.75
2018-11-11T06:09:34.120Z,87.69
2018-11-11T06:12:04.168Z,87.24
2018-11-11T06:14:33.054Z,87.49
2018-11-11T06:17:02.661Z,87.20
2018-11-11T06:19:31.169Z,87.03
2018-11-11T06:21:59.684Z,86.90
2018-11-11T06:24:28.526Z,87.47
2018-11-11T06:26:57.078Z,86.93
2018-11-11T06:29:25.637Z,86.83
2018-11-11T06:31:54.174Z,87.08
2018-11-11T06:34:22.696Z,85.89
2018-11-11T06:36:51.375Z,87.66
2018-11-11T06:39:19.977Z,87.23
2018-11-11T06:41:48.524Z,86.25
2018-11-11T06:44:17.267Z,87.43
2018-11-11T06:46:45.817Z,88.12
2018-11-11T06:49:17.748Z,87.21
2018-11-11T06:51:46.290Z,87.89
2018-11-11T06:54:14.896Z,87.63
2018-11-11T06:56:43.381Z,89.33
2018-11-11T06:59:12.175Z,89.85
2018-11-11T07:01:40.798Z,89.90
2018-11-11T07:04:09.354Z,90.55
2018-11-11T07:06:37.905Z,90.03
2018-11-11T07:09:07.345Z,89.85
2018-11-11T07:11:35.854Z,90.78
2018-11-11T07:14:05.735Z,91.38
2018-11-11T07:16:34.293Z,90.99
2018-11-11T07:19:04.535Z,91.01
2018-11-11T07:21:33.124Z,91.51
2018-11-11T07:24:04.235Z,90.82
2018-11-11T07:26:32.741Z,90.51
2018-11-11T07:29:03.441Z,89.98
2018-11-11T07:31:32.006Z,90.77
2018-11-11T07:34:00.735Z,91.04
2018-11-11T07:36:29.409Z,90.22
2018-11-11T07:38:57.934Z,90.98
2018-11-11T07:41:26.523Z,90.70
2018-11-11T07:43:55.098Z,91.72
2018-11-11T07:46:23.845Z,90.50
2018-11-11T07:48:52.349Z,90.27
2018-11-11T07:51:20.836Z,90.55
2018-11-11T07:53:49.368Z,90.53
2018-11-11T07:56:17.856Z,90.62
2018-11-11T07:58:46.623Z,91.14
2018-11-11T08:01:15.102Z,91.45
2018-11-11T08:03:43.615Z,91.36
2018-11-11T08:06:12.155Z,91.76
2018-11-11T08:08:40.643Z,92.29
2018-11-11T08:11:20.390Z,92.30
2018-11-11T08:13:48.908Z,92.81
2018-11-11T08:16:17.397Z,93.33
2018-11-11T08:18:46.112Z,93.11
2018-11-11T08:21:14.681Z,92.47
2018-11-11T08:23:43.695Z,92.79
2018-11-11T08:26:28.814Z,94.57
2018-11-11T08:32:05.483Z,96.31
2018-11-11T08:34:39.818Z,96.51
2018-11-11T08:37:20.321Z,96.06
2018-11-11T08:39:48.796Z,96.01
2018-11-11T08:42:17.295Z,95.79
2018-11-11T08:44:45.813Z,96.16
2018-11-11T08:47:14.304Z,95.87
2018-11-11T08:49:42.868Z,95.48
2018-11-11T08:52:11.406Z,95.19
2018-11-11T08:54:39.989Z,94.56
2018-11-11T08:57:08.553Z,94.52
2018-11-11T08:59:37.108Z,94.11
2018-11-11T09:02:06.117Z,94.46
2018-11-11T09:04:34.793Z,94.15
2018-11-11T09:07:06.332Z,94.04
2018-11-11T09:09:35.006Z,93.87
2018-11-11T09:12:05.211Z,93.14
2018-11-11T09:14:33.768Z,93.24
2018-11-11T09:17:04.252Z,92.49
2018-11-11T09:19:33.025Z,91.78
2018-11-11T09:22:02.753Z,91.50
2018-11-11T09:24:32.305Z,91.48
2018-11-11T09:27:02.771Z,90.28
2018-11-11T09:29:31.473Z,89.69
2018-11-11T09:32:00.090Z,89.96
2018-11-11T09:34:28.610Z,90.66
2018-11-11T09:36:57.172Z,88.74
2018-11-11T09:39:25.685Z,88.72
2018-11-11T09:41:54.196Z,88.66
2018-11-11T09:44:22.785Z,88.85
2018-11-11T09:46:51.277Z,87.57
2018-11-11T09:49:20.063Z,87.73
2018-11-11T09:51:48.578Z,86.76
2018-11-11T09:54:17.153Z,85.82
2018-11-11T09:56:45.784Z,85.85
2018-11-11T09:59:14.306Z,85.25
2018-11-11T10:01:42.858Z,83.65
2018-11-11T10:05:14.861Z,83.29
2018-11-11T10:08:50.660Z,82.44
2018-11-11T10:11:25.348Z,81.64
2018-11-11T10:13:59.368Z,80.83
2018-11-11T10:16:34.280Z,81.36
2018-11-11T10:19:11.210Z,80.38
2018-11-11T10:21:44.090Z,79.97
2018-11-11T10:26:21.885Z,78.66
2018-11-11T10:29:07.528Z,78.79
2018-11-11T10:31:47.506Z,78.57
2018-11-11T10:34:24.635Z,77.39
2018-11-11T10:37:02.748Z,76.77
2018-11-11T10:41:38.537Z,77.32
2018-11-11T10:44:12.014Z,75.62
2018-11-11T10:46:45.797Z,76.31
2018-11-11T10:49:16.761Z,77.16
2018-11-11T10:51:45.297Z,76.47
2018-11-11T10:54:13.871Z,76.25
2018-11-11T10:56:42.457Z,75.08
2018-11-11T10:59:10.980Z,74.81
2018-11-11T11:01:44.654Z,74.13
2018-11-11T11:04:13.259Z,74.25
2018-11-11T11:06:46.929Z,74.20
2018-11-11T11:09:15.699Z,75.47
2018-11-11T11:11:44.856Z,74.75
2018-11-11T11:14:14.021Z,73.58
2018-11-11T11:16:42.585Z,71.92
2018-11-11T11:19:11.209Z,71.38
2018-11-11T11:21:39.820Z,71.59
2018-11-11T11:24:08.380Z,70.08
2018-11-11T11:26:36.913Z,70.68
2018-11-11T11:29:05.663Z,69.17
2018-11-11T11:31:34.242Z,69.43
2018-11-11T11:34:04.416Z,70.25
2018-11-11T11:36:33.097Z,71.01
2018-11-11T11:39:02.893Z,71.11
2018-11-11T11:41:31.453Z,70.66
2018-11-11T11:44:00.146Z,71.26
2018-11-11T11:46:28.769Z,70.56
2018-11-11T11:48:57.284Z,71.54
2018-11-11T11:51:26.126Z,72.24
2018-11-11T11:53:54.682Z,70.00
2018-11-11T11:56:23.239Z,70.62
2018-11-11T11:58:51.812Z,71.48
2018-11-11T12:01:20.355Z,71.22
2018-11-11T12:03:48.876Z,70.45
2018-11-11T12:06:17.457Z,71.56
2018-11-11T12:08:46.333Z,71.27
2018-11-11T12:11:14.846Z,69.73
2018-11-11T12:13:43.402Z,68.85
2018-11-11T12:16:12.062Z,67.39
2018-11-11T12:18:40.558Z,68.09
2018-11-11T12:21:09.168Z,68.18
2018-11-11T12:23:38.025Z,67.91
2018-11-11T12:26:06.731Z,68.53
2018-11-11T12:28:35.266Z,68.28
2018-11-11T12:31:05.683Z,68.65
2018-11-11T12:33:34.213Z,68.47
2018-11-11T12:36:05.158Z,69.40
2018-11-11T12:38:33.658Z,69.54
2018-11-11T12:41:04.059Z,69.08
2018-11-11T12:43:43.657Z,69.25
2018-11-11T12:46:12.196Z,69.29
2018-11-11T12:48:40.717Z,70.05
2018-11-11T12:51:09.629Z,69.26
2018-11-11T12:53:38.351Z,70.45
2018-11-11T12:56:09.010Z,70.37
2018-11-11T12:58:37.668Z,70.84
2018-11-11T13:01:06.613Z,71.00
2018-11-11T13:03:35.203Z,69.60
2018-11-11T13:06:05.314Z,69.23
2018-11-11T13:08:33.894Z,70.00
2018-11-11T13:11:03.378Z,71.31
2018-11-11T13:13:31.924Z,70.98
2018-11-11T13:16:00.451Z,70.82
2018-11-11T13:18:29.001Z,70.27
2018-11-11T13:20:57.758Z,69.91
2018-11-11T13:23:26.433Z,70.84
2018-11-11T13:26:02.699Z,70.63
2018-11-11T13:28:37.328Z,70.42
2018-11-11T13:31:06.729Z,69.92
2018-11-11T13:33:41.516Z,70.39
2018-11-11T13:36:10.220Z,71.90
2018-11-11T13:38:38.877Z,71.27
2018-11-11T13:41:07.371Z,70.11
2018-11-11T13:43:36.021Z,69.92
2018-11-11T13:46:06.024Z,71.32
2018-11-11T13:48:34.702Z,70.88
2018-11-11T13:51:04.153Z,71.98
2018-11-11T13:53:32.760Z,72.15
2018-11-11T13:56:02.402Z,71.48
2018-11-11T13:58:30.945Z,70.96
2018-11-11T14:00:59.475Z,71.51
2018-11-11T14:03:28.217Z,71.78
2018-11-11T14:05:56.752Z,71.31
2018-11-11T14:08:25.455Z,71.90
2018-11-11T14:10:54.038Z,72.61
2018-11-11T14:13:22.554Z,71.74
2018-11-11T14:15:51.704Z,72.29
2018-11-11T14:18:22.964Z,73.95
2018-11-11T14:20:51.404Z,74.82
2018-11-11T14:23:19.921Z,74.18
2018-11-11T14:25:48.497Z,74.97
2018-11-11T14:28:17.025Z,75.71
2018-11-11T14:30:45.614Z,76.92
2018-11-11T14:33:14.462Z,77.63
2018-11-11T14:35:43.029Z,77.56
2018-11-11T14:38:11.632Z,78.69
2018-11-11T14:40:40.152Z,78.90
2018-11-11T14:43:09.125Z,79.44
2018-11-11T14:45:38.112Z,78.30
2018-11-11T14:48:06.728Z,78.09
2018-11-11T14:50:35.357Z,78.22
2018-11-11T14:53:05.489Z,77.61
2018-11-11T14:55:34.015Z,77.43
2018-11-11T14:58:03.916Z,78.79
2018-11-11T15:00:33.662Z,78.96
2018-11-11T15:03:08.212Z,77.76
2018-11-11T15:05:36.864Z,78.23
2018-11-11T15:08:06.324Z,78.91
2018-11-11T15:10:34.882Z,78.69
2018-11-11T15:13:04.657Z,79.59
2018-11-11T15:15:33.180Z,79.33
2018-11-11T15:18:02.718Z,79.39
2018-11-11T15:20:31.475Z,80.11
2018-11-11T15:23:00.034Z,80.83
2018-11-11T15:25:29.676Z,81.56
2018-11-11T15:27:58.176Z,82.44
2018-11-11T15:30:28.160Z,82.97
2018-11-11T15:32:57.499Z,82.17
2018-11-11T15:35:26.061Z,82.94
2018-11-11T15:37:54.620Z,83.52
2018-11-11T15:40:24.745Z,83.51
2018-11-11T15:42:53.312Z,82.94
2018-11-11T15:45:23.243Z,84.52
2018-11-11T15:47:51.834Z,83.91
2018-11-11T15:50:21.747Z,85.04
2018-11-11T15:52:54.342Z,84.70
2018-11-11T15:55:23.972Z,86.29
2018-11-11T15:57:52.567Z,86.74
2018-11-11T16:00:23.546Z,87.90
2018-11-11T16:02:52.228Z,88.17
2018-11-11T16:05:21.284Z,87.58
2018-11-11T16:07:50.937Z,89.05
2018-11-11T16:10:23.036Z,89.94
2018-11-11T16:12:51.951Z,89.61
2018-11-11T16:15:22.854Z,90.26
2018-11-11T16:17:53.645Z,92.17
2018-11-11T16:20:23.649Z,92.42
2018-11-11T16:22:53.358Z,93.36
2018-11-11T16:25:21.906Z,94.35
2018-11-11T16:27:50.628Z,94.13
2018-11-11T16:30:22.423Z,94.79
2018-11-11T16:32:52.596Z,94.90
2018-11-11T16:35:22.367Z,95.18
2018-11-11T16:37:51.267Z,96.09
2018-11-11T16:40:22.083Z,95.69
2018-11-11T16:42:51.037Z,96.75
2018-11-11T16:45:20.918Z,96.83
2018-11-11T16:47:49.542Z,96.98
2018-11-11T16:50:21.044Z,97.24
2018-11-11T16:52:50.412Z,97.13
2018-11-11T16:55:20.403Z,97.71
2018-11-11T16:57:49.495Z,98.29
2018-11-11T17:00:21.511Z,98.04
2018-11-11T17:02:50.617Z,98.68
2018-11-11T17:05:21.324Z,99.30
2018-11-11T17:07:50.050Z,99.79
2018-11-11T17:10:20.759Z,99.70
2018-11-11T17:12:50.371Z,99.78
2018-11-11T17:15:20.458Z,99.67
2018-11-11T17:17:49.147Z,99.45
2018-11-11T17:20:19.010Z,99.19
2018-11-11T17:22:48.555Z,99.43
2018-11-11T17:25:18.261Z,100.00
2018-11-11T17:27:47.220Z,100.00
2018-11-11T17:30:17.871Z,100.00
2018-11-11T17:32:47.964Z,100.00
2018-11-11T17:35:16.593Z,100.00
2018-11-11T17:37:45.269Z,100.00
2018-11-11T17:40:16.000Z,100.00
2018-11-11T17:42:45.884Z,100.00
2018-11-11T17:45:14.833Z,99.71
2018-11-11T17:47:44.051Z,100.00
2018-11-11T17:50:23.902Z,99.48
2018-11-11T17:52:52.768Z,100.00
2018-11-11T17:55:22.574Z,100.00
2018-11-11T17:57:51.164Z,100.00
2018-11-11T18:00:21.114Z,100.00
2018-11-11T18:02:50.188Z,100.00
2018-11-11T18:05:20.134Z,100.00
2018-11-11T18:07:48.788Z,100.00
2018-11-11T18:10:23.091Z,100.00
2018-11-11T18:12:52.385Z,100.00
2018-11-11T18:15:23.503Z,100.00
2018-11-11T18:17:52.616Z,100.00
2018-11-11T18:20:24.125Z,100.00
2018-11-11T18:22:53.565Z,100.00
2018-11-11T18:25:22.788Z,100.00
2018-11-11T18:27:51.704Z,99.97
2018-11-11T18:30:31.128Z,100.00
2018-11-11T18:32:59.778Z,100.00
2018-11-11T18:35:33.603Z,100.00
2018-11-11T18:38:07.886Z,99.81
2018-11-11T18:40:36.467Z,100.00
2018-11-11T18:43:06.503Z,100.00
2018-11-11T18:45:35.117Z,100.00
2018-11-11T18:48:05.845Z,100.00
2018-11-11T18:50:38.966Z,100.00
2018-11-11T18:53:07.575Z,100.00
2018-11-11T18:55:36.143Z,100.00
2018-11-11T18:58:05.717Z,100.00
2018-11-11T19:00:35.133Z,100.00
2018-11-11T19:03:05.819Z,100.00
2018-11-11T19:05:34.526Z,100.00
2018-11-11T19:08:05.901Z,100.00
2018-11-11T19:10:35.682Z,100.00
2018-11-11T19:13:07.184Z,100.00
2018-11-11T19:15:35.877Z,100.00
2018-11-11T19:18:06.916Z,100.00
2018-11-11T19:20:35.810Z,100.00
2018-11-11T19:23:05.927Z,100.00
2018-11-11T19:25:34.782Z,100.00
2018-11-11T19:28:05.200Z,100.00
2018-11-11T19:30:34.538Z,100.00
2018-11-11T19:33:05.406Z,100.00
2018-11-11T19:35:34.208Z,100.00
2018-11-11T19:38:04.675Z,100.00
2018-11-11T19:40:33.788Z,99.78
2018-11-11T19:43:06.657Z,100.00
2018-11-11T19:45:35.341Z,100.00
2018-11-11T19:48:06.319Z,100.00
2018-11-11T19:50:36.016Z,100.00
2018-11-11T19:53:05.420Z,99.85
2018-11-11T19:55:35.767Z,99.84
2018-11-11T19:58:07.460Z,100.00
2018-11-11T20:00:39.978Z,99.87
2018-11-11T20:03:09.462Z,100.00
2018-11-11T20:05:38.113Z,100.00
2018-11-11T20:08:07.077Z,100.00
2018-11-11T20:10:35.760Z,100.00
2018-11-11T20:13:05.749Z,99.48
2018-11-11T20:15:35.329Z,100.00
2018-11-11T20:18:05.985Z,99.97
2018-11-11T20:20:36.165Z,100.00
2018-11-11T20:23:05.777Z,100.00
2018-11-11T20:25:34.853Z,100.00
2018-11-11T20:28:07.479Z,100.00
2018-11-11T20:30:37.526Z,100.00
2018-11-11T20:33:06.791Z,100.00
2018-11-11T20:35:36.538Z,100.00
2018-11-11T20:38:06.069Z,100.00
2018-11-11T20:40:35.008Z,100.00
2018-11-11T20:43:06.828Z,100.00
2018-11-11T20:45:36.356Z,100.00
2018-11-11T20:48:07.469Z,100.00
2018-11-11T20:50:36.118Z,100.00
2018-11-11T20:53:08.580Z,100.00
2018-11-11T20:55:37.401Z,100.00
2018-11-11T20:58:06.906Z,100.00
2018-11-11T21:00:36.917Z,100.00
2018-11-11T21:03:06.387Z,100.00
2018-11-11T21:05:35.202Z,100.00
2018-11-11T21:08:08.000Z,100.00
2018-11-11T21:10:36.801Z,100.00
2018-11-11T21:13:07.265Z,100.00
2018-11-11T21:15:35.943Z,100.00
2018-11-11T21:18:07.769Z,100.00
2018-11-11T21:20:36.357Z,100.00
2018-11-11T21:23:08.420Z,100.00
2018-11-11T21:25:37.405Z,100.00
2018-11-11T21:28:06.717Z,100.00
2018-11-11T21:30:35.467Z,100.00
2018-11-11T21:33:05.385Z,100.00
2018-11-11T21:35:33.938Z,100.00
2018-11-11T21:38:04.469Z,100.00
2018-11-11T21:40:33.044Z,100.00
2018-11-11T21:43:03.164Z,100.00
2018-11-11T21:45:31.761Z,100.00
2018-11-11T21:48:00.301Z,100.00
2018-11-11T21:50:29.206Z,100.00
2018-11-11T21:53:09.495Z,100.00
2018-11-11T21:55:38.142Z,100.00
2018-11-11T21:58:06.678Z,100.00
2018-11-11T22:00:35.347Z,100.00
2018-11-11T22:03:05.864Z,100.00
2018-11-11T22:05:34.445Z,100.00
2018-11-11T22:08:20.770Z,100.00
2018-11-11T22:10:52.036Z,100.00
2018-11-11T22:13:21.231Z,100.00
2018-11-11T22:15:50.000Z,100.00
2018-11-11T22:18:18.703Z,100.00
2018-11-11T22:20:47.317Z,100.00
2018-11-11T22:23:15.805Z,100.00
2018-11-11T22:25:44.361Z,100.00
2018-11-11T22:28:13.066Z,100.00
2018-11-11T22:30:41.540Z,100.00
2018-11-11T22:33:10.135Z,100.00
2018-11-11T22:35:38.697Z,100.00
2018-11-11T22:38:07.300Z,100.00
2018-11-11T22:40:36.945Z,100.00
2018-11-11T22:43:06.067Z,100.00
2018-11-11T22:45:34.665Z,100.00
2018-11-11T22:48:05.744Z,100.00
2018-11-11T22:50:34.463Z,100.00
2018-11-11T22:53:06.436Z,100.00
2018-11-11T22:55:36.321Z,100.00
2018-11-11T22:58:06.915Z,100.00
2018-11-11T23:00:35.453Z,100.00
2018-11-11T23:03:05.842Z,100.00
2018-11-11T23:05:34.504Z,100.00
2018-11-11T23:08:05.460Z,100.00
2018-11-11T23:10:34.159Z,100.00
2018-11-11T23:13:04.252Z,100.00
2018-11-11T23:15:32.772Z,100.00
2018-11-11T23:18:03.297Z,100.00
2018-11-11T23:20:31.844Z,100.00
2018-11-11T23:23:00.400Z,100.00
2018-11-11T23:25:29.043Z,100.00
2018-11-11T23:27:57.925Z,100.00
2018-11-11T23:30:26.425Z,100.00
2018-11-11T23:32:55.104Z,100.00
2018-11-11T23:35:23.636Z,100.00
2018-11-11T23:37:52.141Z,100.00
2018-11-11T23:40:20.718Z,100.00
2018-11-11T23:42:49.316Z,100.00
2018-11-11T23:45:18.318Z,100.00
2018-11-11T23:47:46.829Z,100.00
2018-11-11T23:50:19.281Z,100.00
2018-11-11T23:52:48.305Z,100.00
2018-11-11T23:55:18.292Z,100.00
2018-11-11T23:57:46.851Z,100.00
